Time;durP1;ratioP1;P1;durP2;ratioP2;P2;SDS_P1;SDS_P2;PMS_P1;PMS_P2;Temp;Humidity;BMP_temperature;BMP_pressure;BME280_temperature;BME280_humidity;BME280_pressure;Samples;Min_cycle;Max_cycle;Signal;HPM_P1;HPM_P2
2022/12/18 00:01:13;;;;;;;40.15;25.45;;;-5.50;99.90;;;;;;5021820;28;20541;-65
2022/12/18 00:03:38;;;;;;;43.10;25.05;;;-5.60;99.90;;;;;;5021841;28;20191;-65
2022/12/18 00:06:04;;;;;;;46.10;26.10;;;-5.50;99.90;;;;;;5027650;28;20267;-65
2022/12/18 00:08:30;;;;;;;37.60;24.80;;;-5.70;99.90;;;;;;5027787;28;20186;-65
2022/12/18 00:11:02;;;;;;;42.27;25.90;;;-5.70;99.90;;;;;;5027336;28;20289;-65
2022/12/18 00:13:28;;;;;;;37.03;23.88;;;-5.70;99.90;;;;;;5023359;28;20202;-66
2022/12/18 00:15:53;;;;;;;38.90;23.57;;;-5.90;99.90;;;;;;5026798;28;20573;-65
2022/12/18 00:18:19;;;;;;;40.87;26.17;;;-5.70;99.90;;;;;;5026265;28;20186;-65
2022/12/18 00:20:45;;;;;;;39.40;24.00;;;-5.60;99.90;;;;;;5028598;28;20186;-65
2022/12/18 00:23:10;;;;;;;40.27;25.00;;;-5.50;99.90;;;;;;5024949;28;20187;-65
2022/12/18 00:25:36;;;;;;;38.13;24.83;;;-5.80;99.90;;;;;;5025266;28;20671;-65
2022/12/18 00:28:03;;;;;;;48.13;25.02;;;-5.70;99.90;;;;;;5031574;28;20175;-65
2022/12/18 00:30:29;;;;;;;44.63;25.25;;;-5.90;99.90;;;;;;5028670;28;20277;-65
2022/12/18 00:32:55;;;;;;;39.77;24.33;;;-5.80;99.90;;;;;;5023101;28;20273;-65
2022/12/18 00:35:21;;;;;;;39.42;23.40;;;-5.70;99.90;;;;;;5024420;28;20206;-66
2022/12/18 00:37:46;;;;;;;40.65;23.05;;;-5.80;99.90;;;;;;5025457;28;20190;-65
2022/12/18 00:40:12;;;;;;;41.83;23.67;;;-5.60;99.90;;;;;;5024991;28;20183;-65
2022/12/18 00:42:56;;;;;;;40.03;25.03;;;-5.60;99.90;;;;;;5024012;28;20186;-65
2022/12/18 00:45:24;;;;;;;40.17;25.45;;;-5.30;99.90;;;;;;5026518;28;20202;-65
2022/12/18 00:47:49;;;;;;;38.28;22.60;;;-5.60;99.90;;;;;;5026343;28;20218;-65
2022/12/18 00:50:15;;;;;;;42.40;24.47;;;-5.90;99.90;;;;;;5028287;28;20210;-65
2022/12/18 00:52:41;;;;;;;40.17;23.17;;;-5.70;99.90;;;;;;5028972;28;20444;-65
2022/12/18 00:55:07;;;;;;;38.50;22.83;;;-5.50;99.90;;;;;;5025896;28;20233;-65
2022/12/18 00:57:33;;;;;;;41.40;24.90;;;-5.50;99.90;;;;;;5025917;28;20187;-65
2022/12/18 00:59:59;;;;;;;42.50;25.67;;;-6.10;99.90;;;;;;5025305;28;20252;-65
2022/12/18 01:02:24;;;;;;;39.07;25.00;;;-5.10;99.90;;;;;;5022650;28;20231;-65
2022/12/18 01:04:50;;;;;;;35.57;22.10;;;-5.50;99.90;;;;;;5032786;28;20214;-66
2022/12/18 01:07:16;;;;;;;42.23;23.50;;;-6.30;99.90;;;;;;5031466;28;20452;-65
2022/12/18 01:09:41;;;;;;;39.47;23.97;;;-5.50;99.90;;;;;;5032687;28;20245;-65
2022/12/18 01:12:07;;;;;;;41.10;25.47;;;-5.40;99.90;;;;;;5031426;28;20174;-65
2022/12/18 01:14:32;;;;;;;46.97;26.77;;;-5.60;99.90;;;;;;5029785;28;20304;-64
2022/12/18 01:16:58;;;;;;;43.20;24.43;;;-5.60;99.90;;;;;;5025397;28;20182;-65
2022/12/18 01:19:23;;;;;;;39.77;22.97;;;-5.60;99.90;;;;;;5025592;28;20178;-65
2022/12/18 01:21:49;;;;;;;41.53;24.70;;;-5.50;99.90;;;;;;5029807;28;20622;-65
2022/12/18 01:24:15;;;;;;;40.00;23.97;;;-5.80;99.90;;;;;;5021115;28;20196;-65
2022/12/18 01:26:41;;;;;;;40.10;25.60;;;-5.70;99.90;;;;;;5032091;28;20209;-66
2022/12/18 01:29:06;;;;;;;37.93;22.53;;;-5.50;99.90;;;;;;5031420;28;20433;-65
2022/12/18 01:31:33;;;;;;;39.37;23.47;;;-5.80;99.90;;;;;;5029768;28;20507;-64
2022/12/18 01:34:03;;;;;;;44.17;24.10;;;-5.60;99.90;;;;;;5027049;28;20198;-64
2022/12/18 01:36:32;;;;;;;38.90;22.38;;;-5.40;99.90;;;;;;5029619;28;20228;-64
2022/12/18 01:39:01;;;;;;;40.50;23.70;;;-5.50;99.90;;;;;;5027647;28;20445;-65
2022/12/18 01:42:01;;;;;;;39.20;21.40;;;-5.60;99.90;;;;;;5031814;28;20186;-64
2022/12/18 01:44:52;;;;;;;44.83;25.67;;;-6.20;99.90;;;;;;5029856;28;20271;-65
2022/12/18 01:47:23;;;;;;;41.45;23.92;;;-5.50;99.90;;;;;;5029353;28;20178;-65
2022/12/18 01:49:49;;;;;;;36.05;23.58;;;-5.40;99.90;;;;;;5030616;28;20237;-67
2022/12/18 01:52:15;;;;;;;46.90;23.30;;;-5.40;99.90;;;;;;5032189;28;20558;-65
2022/12/18 01:54:41;;;;;;;36.97;21.95;;;-5.40;99.90;;;;;;5026509;28;20477;-65
2022/12/18 01:57:07;;;;;;;37.93;23.97;;;-5.50;99.90;;;;;;5026342;28;20194;-65
2022/12/18 01:59:35;;;;;;;42.15;24.73;;;-5.30;99.90;;;;;;5027406;28;20565;-65
2022/12/18 02:02:02;;;;;;;43.10;23.20;;;-6.20;99.90;;;;;;5029326;28;20187;-64
2022/12/18 02:04:28;;;;;;;35.72;23.20;;;-5.70;99.90;;;;;;5029420;28;20190;-64
2022/12/18 02:07:07;;;;;;;43.40;25.50;;;-5.60;99.90;;;;;;5027175;28;20214;-65
2022/12/18 02:09:46;;;;;;;41.65;22.88;;;-5.60;99.90;;;;;;5019051;28;20488;-64
2022/12/18 02:12:22;;;;;;;43.08;24.80;;;-5.60;99.90;;;;;;5030349;28;20270;-65
2022/12/18 02:15:06;;;;;;;35.60;21.52;;;-5.40;99.90;;;;;;5026393;28;20228;-65
2022/12/18 02:17:44;;;;;;;39.72;22.20;;;-5.30;99.90;;;;;;5028047;28;20186;-65
2022/12/18 02:20:30;;;;;;;40.28;22.20;;;-5.10;99.90;;;;;;5027746;28;20711;-65
2022/12/18 02:22:55;;;;;;;35.80;23.23;;;-5.50;99.90;;;;;;5028770;28;20209;-65
2022/12/18 02:25:51;;;;;;;32.17;21.20;;;-5.60;99.90;;;;;;5031023;28;20198;-65
2022/12/18 02:28:22;;;;;;;38.17;23.63;;;-5.10;99.90;;;;;;5028528;28;20189;-65
2022/12/18 02:30:50;;;;;;;38.00;23.42;;;-5.10;99.90;;;;;;5030390;28;20194;-65
2022/12/18 02:33:17;;;;;;;35.67;21.88;;;-5.20;99.90;;;;;;5024944;28;20211;-65
2022/12/18 02:35:45;;;;;;;39.80;22.08;;;-5.00;99.90;;;;;;5028045;28;20207;-65
2022/12/18 02:38:12;;;;;;;34.55;21.33;;;-5.10;99.90;;;;;;5024031;28;20190;-65
2022/12/18 02:40:38;;;;;;;34.28;20.33;;;-5.70;99.90;;;;;;5027939;28;20209;-65
2022/12/18 02:43:13;;;;;;;34.38;21.88;;;-5.10;99.90;;;;;;5027041;28;20277;-65
2022/12/18 02:45:51;;;;;;;34.90;20.52;;;-5.30;99.90;;;;;;5029867;28;20579;-64
2022/12/18 02:48:20;;;;;;;38.65;23.20;;;-5.30;99.90;;;;;;5031371;28;20644;-65
2022/12/18 02:50:56;;;;;;;36.10;20.35;;;-5.70;99.90;;;;;;5030815;28;20202;-65
2022/12/18 02:53:36;;;;;;;33.20;20.92;;;-5.80;99.90;;;;;;5025049;28;20703;-64
2022/12/18 02:56:09;;;;;;;32.92;19.15;;;-5.20;99.90;;;;;;5027383;28;20214;-64
2022/12/18 02:59:03;;;;;;;40.22;21.77;;;-6.10;99.90;;;;;;5029532;28;20174;-64
2022/12/18 03:01:42;;;;;;;33.47;19.27;;;-5.30;99.90;;;;;;5027603;28;20229;-64
2022/12/18 03:04:19;;;;;;;37.22;20.90;;;-5.40;99.90;;;;;;5021686;28;20915;-65
2022/12/18 03:06:55;;;;;;;40.17;22.45;;;-5.20;99.90;;;;;;5042408;28;20228;-64
2022/12/18 03:09:26;;;;;;;33.85;20.05;;;-5.50;99.90;;;;;;5023368;28;20190;-65
2022/12/18 03:14:52;;;;;;;38.03;19.73;;;-5.60;99.90;;;;;;5025221;28;20745;-64
2022/12/18 03:17:23;;;;;;;36.42;20.55;;;-5.10;99.90;;;;;;5025509;28;20185;-64
2022/12/18 03:19:51;;;;;;;37.33;21.33;;;-5.30;99.90;;;;;;5022089;28;20272;-66
2022/12/18 03:22:17;;;;;;;37.63;20.40;;;-5.50;99.90;;;;;;5028280;28;20181;-65
2022/12/18 03:24:44;;;;;;;35.90;20.65;;;-5.20;99.90;;;;;;5027686;28;20253;-64
2022/12/18 03:27:13;;;;;;;35.92;22.20;;;-5.20;99.90;;;;;;5028180;28;20186;-64
2022/12/18 03:29:48;;;;;;;32.63;19.67;;;-5.70;99.90;;;;;;5028986;28;20223;-65
2022/12/18 03:32:26;;;;;;;33.17;19.00;;;-5.20;99.90;;;;;;5031794;28;20273;-64
2022/12/18 03:34:57;;;;;;;32.28;19.25;;;-5.30;99.90;;;;;;5028607;28;20214;-65
2022/12/18 03:37:22;;;;;;;33.83;20.58;;;-5.20;99.90;;;;;;5025562;28;20649;-65
2022/12/18 03:39:48;;;;;;;31.73;18.47;;;-5.80;99.90;;;;;;5025334;28;20244;-65
2022/12/18 03:42:25;;;;;;;36.83;20.43;;;-5.90;99.90;;;;;;5029482;28;20217;-64
2022/12/18 03:45:31;;;;;;;33.58;20.30;;;-5.70;99.90;;;;;;5029776;28;20214;-65
2022/12/18 03:48:31;;;;;;;34.22;20.50;;;-5.00;99.90;;;;;;5028661;28;20183;-65
2022/12/18 03:51:03;;;;;;;26.48;16.58;;;-5.10;99.90;;;;;;5028258;28;20194;-65
2022/12/18 03:53:47;;;;;;;28.77;18.35;;;-5.00;99.90;;;;;;5036041;28;20230;-65
2022/12/18 03:56:16;;;;;;;30.52;19.52;;;-5.00;99.90;;;;;;5027563;28;20659;-65
2022/12/18 03:58:43;;;;;;;30.90;17.73;;;-5.10;99.90;;;;;;5027560;28;20201;-64
2022/12/18 04:01:13;;;;;;;27.88;17.92;;;-5.00;99.90;;;;;;5023232;28;20559;-65
2022/12/18 04:03:40;;;;;;;34.50;18.85;;;-5.70;99.90;;;;;;5026410;28;20273;-64
2022/12/18 04:06:07;;;;;;;27.40;17.20;;;-6.20;99.90;;;;;;5027931;28;20271;-64
2022/12/18 04:08:34;;;;;;;29.77;17.10;;;-5.40;99.90;;;;;;5025744;28;20659;-64
2022/12/18 04:11:01;;;;;;;30.27;18.17;;;-5.40;99.90;;;;;;5027873;28;20194;-65
2022/12/18 04:13:35;;;;;;;28.33;17.55;;;-4.70;99.90;;;;;;5027245;28;20598;-64
2022/12/18 04:16:01;;;;;;;30.77;17.48;;;-5.20;99.90;;;;;;5026932;28;20205;-63
2022/12/18 04:18:27;;;;;;;28.90;19.25;;;-5.20;99.90;;;;;;5026552;28;20656;-64
2022/12/18 04:20:53;;;;;;;31.47;19.30;;;-5.90;99.90;;;;;;5023655;28;20274;-65
2022/12/18 04:23:18;;;;;;;25.40;16.87;;;-5.60;99.90;;;;;;5022266;28;20273;-64
2022/12/18 04:25:44;;;;;;;28.23;17.87;;;-5.90;99.90;;;;;;5029529;28;20207;-64
2022/12/18 04:28:10;;;;;;;28.35;17.45;;;-5.40;99.90;;;;;;5023842;28;20182;-64
2022/12/18 04:30:36;;;;;;;32.47;18.17;;;-5.60;99.90;;;;;;5028680;28;20197;-64
2022/12/18 04:33:01;;;;;;;27.33;17.67;;;-5.60;99.90;;;;;;5027631;28;20186;-64
2022/12/18 04:35:27;;;;;;;30.30;17.90;;;-5.90;99.90;;;;;;5024082;28;20730;-64
2022/12/18 04:37:52;;;;;;;31.27;18.80;;;-5.10;99.90;;;;;;5022787;28;20175;-64
2022/12/18 04:40:18;;;;;;;30.87;18.83;;;-5.70;99.90;;;;;;5027167;28;20185;-64
2022/12/18 04:42:43;;;;;;;33.40;20.47;;;-5.80;99.90;;;;;;5027914;28;20179;-64
2022/12/18 04:45:09;;;;;;;30.67;20.47;;;-5.90;99.90;;;;;;5029379;28;20194;-65
2022/12/18 04:47:35;;;;;;;26.97;16.40;;;-5.60;99.90;;;;;;5027831;28;20479;-64
2022/12/18 04:50:01;;;;;;;28.13;17.87;;;-5.50;99.90;;;;;;5026343;28;20465;-64
2022/12/18 04:52:26;;;;;;;34.20;19.90;;;-5.60;99.90;;;;;;5028294;28;20174;-64
2022/12/18 04:54:52;;;;;;;26.17;15.95;;;-5.60;99.90;;;;;;5024006;28;20272;-64
2022/12/18 04:57:18;;;;;;;29.33;17.23;;;-5.70;99.90;;;;;;5022698;28;20183;-65
2022/12/18 04:59:44;;;;;;;29.67;18.37;;;-5.10;99.90;;;;;;5025887;28;20237;-65
2022/12/18 05:02:10;;;;;;;30.42;18.63;;;-5.80;99.90;;;;;;5027790;28;20186;-66
2022/12/18 05:04:36;;;;;;;27.10;18.13;;;-5.60;99.90;;;;;;5027595;28;20273;-65
2022/12/18 05:07:01;;;;;;;29.50;17.50;;;-5.60;99.90;;;;;;5025043;28;20630;-65
2022/12/18 05:09:27;;;;;;;30.73;18.60;;;-5.90;99.90;;;;;;5023556;28;20189;-65
2022/12/18 05:11:53;;;;;;;28.95;18.42;;;-6.00;99.90;;;;;;5018583;28;20286;-65
2022/12/18 05:14:19;;;;;;;29.50;17.90;;;-5.60;99.90;;;;;;5029266;28;20576;-65
2022/12/18 05:16:44;;;;;;;33.17;18.50;;;-6.00;99.90;;;;;;5018431;28;20460;-65
2022/12/18 05:19:10;;;;;;;31.00;19.13;;;-6.00;99.90;;;;;;5028161;28;20182;-65
2022/12/18 05:21:36;;;;;;;27.07;16.33;;;-6.60;99.90;;;;;;5025071;28;20616;-65
2022/12/18 05:24:01;;;;;;;31.60;18.87;;;-6.10;99.90;;;;;;5022267;28;20186;-65
2022/12/18 05:26:27;;;;;;;25.67;16.77;;;-6.20;99.90;;;;;;5023288;28;20472;-65
2022/12/18 05:28:52;;;;;;;27.63;18.13;;;-6.10;99.90;;;;;;5016132;28;20236;-65
2022/12/18 05:31:18;;;;;;;32.63;17.97;;;-6.30;99.90;;;;;;5024031;28;20270;-65
2022/12/18 05:33:44;;;;;;;27.27;18.67;;;-6.10;99.90;;;;;;5025230;28;20217;-64
2022/12/18 05:36:11;;;;;;;25.50;18.77;;;-6.30;99.90;;;;;;5020412;28;20296;-65
2022/12/18 05:38:39;;;;;;;27.05;16.98;;;-6.30;99.90;;;;;;5019991;28;20273;-65
2022/12/18 05:41:06;;;;;;;28.42;18.35;;;-6.40;99.90;;;;;;5022576;28;20183;-65
2022/12/18 05:43:33;;;;;;;29.58;15.93;;;-6.30;99.90;;;;;;5030367;28;20325;-65
2022/12/18 05:46:03;;;;;;;29.40;18.67;;;-6.30;99.90;;;;;;5027311;28;20217;-65
2022/12/18 05:48:29;;;;;;;27.17;17.88;;;-6.80;99.90;;;;;;5029147;28;20189;-66
2022/12/18 05:50:54;;;;;;;28.03;16.90;;;-6.30;99.90;;;;;;5031274;28;20269;-65
2022/12/18 05:53:20;;;;;;;27.97;17.80;;;-6.90;99.90;;;;;;5025194;28;20240;-66
2022/12/18 05:55:46;;;;;;;30.30;19.42;;;-6.50;99.90;;;;;;5027563;28;20205;-66
2022/12/18 05:58:14;;;;;;;33.00;19.30;;;-6.50;99.90;;;;;;5026921;28;20603;-65
2022/12/18 06:00:42;;;;;;;30.63;17.77;;;-5.90;99.90;;;;;;5029458;28;20197;-65
2022/12/18 06:03:09;;;;;;;30.13;17.15;;;-5.90;99.90;;;;;;5027886;28;20214;-65
2022/12/18 06:05:40;;;;;;;25.50;16.60;;;-7.10;99.90;;;;;;5023493;28;20664;-66
2022/12/18 06:08:14;;;;;;;30.73;17.58;;;-6.70;99.90;;;;;;5021676;28;20194;-65
2022/12/18 06:10:42;;;;;;;29.58;18.60;;;-6.40;99.90;;;;;;5022862;28;20192;-66
2022/12/18 06:13:08;;;;;;;39.60;20.40;;;-6.60;99.90;;;;;;5028943;28;20179;-66
2022/12/18 06:15:37;;;;;;;29.65;18.63;;;-6.70;99.90;;;;;;5028765;28;20701;-66
2022/12/18 06:18:02;;;;;;;31.15;16.58;;;-6.80;99.90;;;;;;5021384;28;20900;-66
2022/12/18 06:20:31;;;;;;;24.20;17.10;;;-6.70;99.90;;;;;;5029553;28;20187;-65
2022/12/18 06:22:57;;;;;;;28.63;18.35;;;-6.50;99.90;;;;;;5020097;28;20178;-66
2022/12/18 06:25:22;;;;;;;25.93;17.20;;;-6.80;99.90;;;;;;5018631;28;20643;-66
2022/12/18 06:27:49;;;;;;;37.53;19.60;;;-6.70;99.90;;;;;;5021971;28;20208;-66
2022/12/18 06:30:15;;;;;;;31.25;17.48;;;-6.70;99.90;;;;;;5020181;28;20229;-66
2022/12/18 06:32:40;;;;;;;27.30;16.67;;;-6.60;99.90;;;;;;5016307;28;20580;-66
2022/12/18 06:35:06;;;;;;;29.83;18.20;;;-7.00;99.90;;;;;;5026879;28;20713;-66
2022/12/18 06:37:32;;;;;;;33.78;18.40;;;-6.80;99.90;;;;;;5025024;28;20178;-66
2022/12/18 06:39:58;;;;;;;27.50;15.97;;;-6.80;99.90;;;;;;5018844;28;20663;-66
2022/12/18 06:42:24;;;;;;;32.43;18.30;;;-7.00;99.90;;;;;;5030241;28;20189;-66
2022/12/18 06:44:50;;;;;;;29.50;17.30;;;-7.60;99.90;;;;;;5030075;28;20293;-66
2022/12/18 06:47:15;;;;;;;33.00;16.20;;;-7.00;99.90;;;;;;5029246;28;20634;-66
2022/12/18 06:49:41;;;;;;;28.60;16.00;;;-6.90;99.90;;;;;;5030495;28;20200;-66
2022/12/18 06:52:06;;;;;;;32.63;16.87;;;-6.90;99.90;;;;;;5018920;28;20182;-66
2022/12/18 06:54:32;;;;;;;27.13;15.47;;;-7.00;99.90;;;;;;5015720;28;20221;-66
2022/12/18 06:56:57;;;;;;;28.70;18.07;;;-7.10;99.90;;;;;;5020842;28;20598;-66
2022/12/18 06:59:23;;;;;;;25.13;16.10;;;-6.90;99.90;;;;;;5026659;28;20176;-66
2022/12/18 07:01:49;;;;;;;26.30;16.13;;;-7.00;99.90;;;;;;5026467;28;20207;-66
2022/12/18 07:04:14;;;;;;;36.27;18.50;;;-7.00;99.90;;;;;;5027555;28;20178;-66
2022/12/18 07:06:40;;;;;;;27.37;16.67;;;-6.40;99.90;;;;;;5030045;28;20252;-65
2022/12/18 07:09:05;;;;;;;31.80;18.10;;;-6.90;99.90;;;;;;5026080;28;20182;-65
2022/12/18 07:11:32;;;;;;;24.93;15.73;;;-7.00;99.90;;;;;;5025917;28;20182;-65
2022/12/18 07:13:58;;;;;;;33.80;16.30;;;-6.90;99.90;;;;;;5025249;28;20248;-65
2022/12/18 07:16:23;;;;;;;27.27;17.13;;;-7.50;99.90;;;;;;5024741;28;20639;-66
2022/12/18 07:18:50;;;;;;;25.70;15.70;;;-6.50;99.90;;;;;;5030093;28;20293;-66
2022/12/18 07:21:19;;;;;;;28.27;16.70;;;-7.40;99.90;;;;;;5029138;28;20281;-65
2022/12/18 07:23:47;;;;;;;31.45;18.10;;;-6.80;99.90;;;;;;5025748;28;20601;-65
2022/12/18 07:26:14;;;;;;;25.20;16.52;;;-6.90;99.90;;;;;;5029227;28;20297;-65
2022/12/18 07:28:40;;;;;;;30.50;17.85;;;-6.90;99.90;;;;;;5027063;28;20244;-65
2022/12/18 07:31:11;;;;;;;34.03;19.00;;;-7.40;99.90;;;;;;5031134;28;20561;-65
2022/12/18 07:33:37;;;;;;;24.92;16.30;;;-6.80;99.90;;;;;;5027984;28;20249;-66
2022/12/18 07:36:05;;;;;;;26.45;17.73;;;-6.90;99.90;;;;;;5030877;28;20216;-66
2022/12/18 07:38:32;;;;;;;26.92;16.95;;;-6.90;99.90;;;;;;5030667;28;20178;-66
2022/12/18 07:41:16;;;;;;;24.67;16.30;;;-6.80;99.90;;;;;;5029138;28;20548;-66
2022/12/18 07:43:42;;;;;;;33.90;18.55;;;-6.60;99.90;;;;;;5023631;28;20193;-65
2022/12/18 07:46:08;;;;;;;29.50;16.27;;;-6.70;99.90;;;;;;5025665;28;20293;-65
2022/12/18 07:48:34;;;;;;;30.75;16.02;;;-6.50;99.90;;;;;;5024042;28;20203;-66
2022/12/18 07:51:04;;;;;;;27.27;15.85;;;-6.80;99.90;;;;;;5028646;28;20195;-66
2022/12/18 07:53:31;;;;;;;29.45;16.67;;;-7.20;99.90;;;;;;5026413;28;20241;-66
2022/12/18 07:56:02;;;;;;;29.38;16.95;;;-6.90;99.90;;;;;;5021362;28;20210;-66
2022/12/18 07:58:29;;;;;;;31.52;16.55;;;-6.80;99.90;;;;;;5024487;28;20190;-65
2022/12/18 08:00:54;;;;;;;26.63;18.27;;;-6.80;99.90;;;;;;5029159;28;20206;-66
2022/12/18 08:03:20;;;;;;;28.03;16.63;;;-6.90;99.90;;;;;;5024768;28;20210;-65
2022/12/18 08:05:45;;;;;;;29.73;16.87;;;-7.00;99.90;;;;;;5026320;28;20210;-66
2022/12/18 08:08:11;;;;;;;26.43;17.23;;;-7.10;99.90;;;;;;5021550;28;20659;-66
2022/12/18 08:10:37;;;;;;;30.80;18.13;;;-6.70;99.90;;;;;;5027879;28;20185;-66
2022/12/18 08:13:03;;;;;;;30.45;17.02;;;-6.90;99.90;;;;;;5021562;28;20554;-66
2022/12/18 08:15:29;;;;;;;30.60;19.33;;;-6.50;99.90;;;;;;5023638;28;20234;-66
2022/12/18 08:17:57;;;;;;;39.20;18.20;;;-7.30;99.90;;;;;;5024506;28;20240;-66
2022/12/18 08:20:23;;;;;;;28.00;17.52;;;-6.60;99.90;;;;;;5027634;28;20743;-66
2022/12/18 08:22:49;;;;;;;29.47;18.70;;;-6.70;99.90;;;;;;5024263;28;20179;-66
2022/12/18 08:25:14;;;;;;;30.27;16.07;;;-6.30;99.90;;;;;;5022701;28;20209;-66
2022/12/18 08:27:40;;;;;;;27.40;17.60;;;-7.20;99.90;;;;;;5027049;28;20229;-66
2022/12/18 08:30:06;;;;;;;33.67;19.50;;;-6.50;99.90;;;;;;5024576;28;20181;-66
2022/12/18 08:32:32;;;;;;;27.45;17.30;;;-6.60;99.90;;;;;;5027263;28;20660;-66
2022/12/18 08:34:58;;;;;;;27.23;17.58;;;-6.60;99.90;;;;;;5029304;28;20224;-66
2022/12/18 08:37:24;;;;;;;29.63;16.63;;;-6.50;99.90;;;;;;5026209;28;20610;-65
2022/12/18 08:39:50;;;;;;;28.10;17.80;;;-6.40;99.90;;;;;;5027282;28;20425;-65
2022/12/18 08:45:00;;;;;;;30.98;17.52;;;-6.30;99.90;;;;;;5027965;28;20339;-65
2022/12/18 08:47:25;;;;;;;33.67;18.37;;;-6.00;99.90;;;;;;5024581;28;20193;-66
2022/12/18 08:49:51;;;;;;;34.50;19.90;;;-5.50;99.90;;;;;;5025063;28;20236;-65
2022/12/18 08:52:17;;;;;;;31.83;21.37;;;-5.90;99.90;;;;;;5026807;28;20491;-65
2022/12/18 08:54:42;;;;;;;29.90;20.10;;;-5.60;99.90;;;;;;5016116;28;20280;-65
2022/12/18 08:57:08;;;;;;;34.30;19.90;;;-5.60;99.90;;;;;;5027605;28;20183;-66
2022/12/18 08:59:34;;;;;;;34.10;22.13;;;-5.60;99.90;;;;;;5030384;28;20670;-65
2022/12/18 09:01:59;;;;;;;31.43;20.37;;;-5.60;99.90;;;;;;5025603;28;20675;-65
2022/12/18 09:04:25;;;;;;;34.50;18.70;;;-4.90;99.90;;;;;;5023544;28;20187;-65
2022/12/18 09:06:50;;;;;;;26.87;18.80;;;-5.40;99.90;;;;;;5027836;28;20588;-65
2022/12/18 09:09:16;;;;;;;27.70;18.67;;;-5.20;99.90;;;;;;5025499;28;20195;-65
2022/12/18 09:11:42;;;;;;;32.83;19.33;;;-5.00;99.90;;;;;;5027742;28;20201;-65
2022/12/18 09:14:09;;;;;;;30.90;19.87;;;-5.10;99.90;;;;;;5026572;28;20534;-65
2022/12/18 09:16:34;;;;;;;35.17;19.05;;;-4.90;99.90;;;;;;5025147;28;20210;-65
2022/12/18 09:19:01;;;;;;;32.10;19.37;;;-4.90;99.90;;;;;;5028382;28;20244;-65
2022/12/18 09:21:33;;;;;;;29.20;19.45;;;-4.90;99.90;;;;;;5027391;28;20171;-65
2022/12/18 09:23:59;;;;;;;34.30;19.13;;;-4.70;99.90;;;;;;5023306;28;20210;-66
2022/12/18 09:26:26;;;;;;;28.90;18.93;;;-4.50;99.90;;;;;;5030372;28;20207;-66
2022/12/18 09:28:51;;;;;;;30.25;17.98;;;-3.60;99.90;;;;;;5030062;28;20558;-67
2022/12/18 09:31:19;;;;;;;31.03;20.30;;;-2.80;99.90;;;;;;5032013;28;20190;-67
2022/12/18 09:33:45;;;;;;;29.90;19.67;;;-2.20;99.90;;;;;;5030477;28;20737;-67
2022/12/18 09:36:13;;;;;;;31.53;18.73;;;-2.50;99.90;;;;;;5031989;28;20333;-65
2022/12/18 09:38:39;;;;;;;30.73;19.25;;;-2.10;99.90;;;;;;5028542;28;20195;-66
2022/12/18 09:41:06;;;;;;;27.50;18.27;;;-2.90;99.90;;;;;;5030528;28;20526;-65
2022/12/18 09:43:53;;;;;;;30.83;19.48;;;-2.60;99.90;;;;;;5028776;28;20436;-65
2022/12/18 09:46:34;;;;;;;31.67;19.83;;;-2.80;99.90;;;;;;5032955;28;20206;-64
2022/12/18 09:49:05;;;;;;;28.08;18.40;;;-3.70;99.90;;;;;;5025884;28;20184;-67
2022/12/18 09:51:44;;;;;;;30.05;20.05;;;-3.70;99.90;;;;;;5029047;28;20217;-65
2022/12/18 09:54:20;;;;;;;31.23;19.38;;;-3.10;99.90;;;;;;5025743;28;20207;-65
2022/12/18 09:56:46;;;;;;;32.08;20.33;;;-3.20;99.90;;;;;;5026780;28;20779;-65
2022/12/18 09:59:30;;;;;;;30.95;19.15;;;-3.00;99.90;;;;;;5032746;28;20190;-67
2022/12/18 10:01:56;;;;;;;30.42;20.35;;;-3.00;99.90;;;;;;5027347;28;20193;-67
2022/12/18 10:04:23;;;;;;;32.95;21.25;;;-2.50;99.90;;;;;;5027890;28;20217;-66
2022/12/18 10:07:03;;;;;;;28.52;19.77;;;-2.20;99.90;;;;;;5028901;28;20300;-66
2022/12/18 10:09:45;;;;;;;29.27;19.38;;;-1.70;99.90;;;;;;5025791;28;20198;-66
2022/12/18 10:12:31;;;;;;;29.00;17.75;;;-1.20;99.90;;;;;;5031114;28;20745;-66
2022/12/18 10:15:15;;;;;;;29.35;19.88;;;-1.00;99.90;;;;;;5030305;28;20719;-65
2022/12/18 10:17:46;;;;;;;31.17;19.88;;;0.10;99.60;;;;;;5029503;28;20798;-66
2022/12/18 10:20:31;;;;;;;31.45;19.20;;;-0.40;98.30;;;;;;5030104;28;20524;-65
2022/12/18 10:23:14;;;;;;;27.48;17.88;;;0.10;98.80;;;;;;5028439;28;20193;-66
2022/12/18 10:26:01;;;;;;;27.30;16.65;;;-0.10;98.60;;;;;;5030275;28;20228;-65
2022/12/18 10:28:29;;;;;;;25.73;16.38;;;0.50;98.00;;;;;;5029653;28;20188;-64
2022/12/18 10:30:54;;;;;;;31.80;19.10;;;0.60;96.70;;;;;;5030052;28;20569;-65
2022/12/18 10:33:23;;;;;;;22.90;15.40;;;1.80;95.80;;;;;;5029512;28;20186;-65
2022/12/18 10:35:53;;;;;;;25.23;15.68;;;2.10;94.60;;;;;;5029064;28;20202;-64
2022/12/18 10:38:19;;;;;;;28.80;18.45;;;2.50;93.80;;;;;;5019771;28;20284;-65
2022/12/18 10:40:49;;;;;;;24.10;15.57;;;2.60;93.10;;;;;;5026521;28;20602;-65
2022/12/18 10:43:19;;;;;;;26.80;17.55;;;1.90;92.80;;;;;;5030663;28;20189;-65
2022/12/18 10:46:09;;;;;;;21.85;15.63;;;1.10;93.30;;;;;;5026654;28;20232;-64
2022/12/18 10:48:47;;;;;;;28.05;18.48;;;1.90;94.10;;;;;;5030353;28;20190;-65
2022/12/18 10:51:33;;;;;;;26.98;17.85;;;1.60;93.30;;;;;;5031080;28;20312;-65
2022/12/18 10:54:06;;;;;;;26.63;19.20;;;2.10;93.50;;;;;;5028081;28;20214;-65
2022/12/18 10:56:34;;;;;;;25.20;18.20;;;2.20;92.90;;;;;;5028135;28;20205;-64
2022/12/18 10:59:09;;;;;;;28.88;18.88;;;1.70;93.50;;;;;;5028286;28;20321;-65
2022/12/18 11:01:57;;;;;;;28.30;18.15;;;1.50;94.30;;;;;;5027276;28;20192;-65
2022/12/18 11:04:27;;;;;;;25.83;16.50;;;1.50;94.50;;;;;;5028135;28;20204;-65
2022/12/18 11:07:02;;;;;;;30.08;16.60;;;1.50;95.00;;;;;;5030392;28;20222;-65
2022/12/18 11:09:37;;;;;;;29.02;17.02;;;1.50;95.20;;;;;;5026567;28;20217;-65
2022/12/18 11:12:14;;;;;;;26.92;16.85;;;1.60;95.00;;;;;;5029617;28;20185;-66
2022/12/18 11:14:47;;;;;;;29.73;19.25;;;1.60;94.70;;;;;;5026070;28;20220;-65
2022/12/18 11:17:24;;;;;;;25.10;16.48;;;1.50;95.10;;;;;;5028934;28;20186;-65
2022/12/18 11:19:58;;;;;;;29.02;17.95;;;1.60;95.40;;;;;;5031510;28;20186;-65
2022/12/18 11:22:27;;;;;;;23.98;16.33;;;1.50;95.60;;;;;;5025066;28;20191;-65
2022/12/18 11:25:16;;;;;;;32.15;20.63;;;1.50;95.90;;;;;;5026868;28;20210;-66
2022/12/18 11:28:10;;;;;;;28.77;19.15;;;1.20;95.50;;;;;;5028423;28;20190;-66
2022/12/18 11:30:37;;;;;;;29.00;18.10;;;1.40;96.30;;;;;;5028319;28;20664;-66
2022/12/18 11:33:20;;;;;;;29.35;20.70;;;2.00;95.60;;;;;;5026801;28;20577;-65
2022/12/18 11:36:02;;;;;;;29.55;18.65;;;2.30;95.10;;;;;;5026020;28;20316;-65
2022/12/18 11:38:35;;;;;;;31.38;19.60;;;2.30;94.80;;;;;;5023374;28;20183;-65
2022/12/18 11:44:38;;;;;;;27.40;17.60;;;1.30;96.10;;;;;;5030659;28;20327;-64
2022/12/18 11:47:21;;;;;;;24.70;15.55;;;1.40;96.90;;;;;;5027538;28;20179;-64
2022/12/18 11:49:49;;;;;;;26.10;16.58;;;1.40;96.50;;;;;;5030509;28;20182;-65
2022/12/18 11:52:36;;;;;;;24.83;15.98;;;1.50;96.60;;;;;;5030750;28;20200;-64
2022/12/18 11:55:11;;;;;;;25.55;17.00;;;1.50;96.30;;;;;;5023254;28;20270;-65
2022/12/18 11:57:54;;;;;;;23.20;15.30;;;1.90;96.10;;;;;;5026705;28;20272;-65
2022/12/18 12:00:21;;;;;;;26.83;15.98;;;1.90;95.50;;;;;;5027473;28;20182;-66
2022/12/18 12:03:11;;;;;;;22.73;15.02;;;1.50;95.30;;;;;;5028407;28;20618;-64
2022/12/18 12:06:10;;;;;;;25.17;15.52;;;2.30;95.30;;;;;;5028226;28;20297;-64
2022/12/18 12:08:39;;;;;;;26.55;15.75;;;1.90;94.70;;;;;;5026293;28;20309;-64
2022/12/18 12:11:07;;;;;;;22.98;14.55;;;1.90;95.00;;;;;;5024984;28;20629;-65
2022/12/18 12:14:04;;;;;;;25.65;16.13;;;1.50;95.60;;;;;;5029506;28;20186;-65
2022/12/18 12:17:05;;;;;;;25.60;15.38;;;1.40;96.00;;;;;;5025210;28;20197;-66
2022/12/18 12:20:20;;;;;;;26.77;15.40;;;1.40;95.90;;;;;;5024223;28;20187;-66
2022/12/18 12:23:23;;;;;;;21.88;13.77;;;1.30;96.10;;;;;;5004345;28;20245;-65
2022/12/18 12:26:44;;;;;;;26.35;15.80;;;1.40;96.20;;;;;;5016158;28;20220;-64
2022/12/18 12:29:33;;;;;;;26.33;16.42;;;1.60;96.50;;;;;;5007366;28;20703;-66
2022/12/18 12:32:10;;;;;;;26.10;15.90;;;1.40;96.40;;;;;;5019958;28;20233;-66
2022/12/18 12:35:14;;;;;;;26.20;15.07;;;1.20;96.50;;;;;;5027230;28;20221;-66
2022/12/18 12:38:01;;;;;;;25.38;15.70;;;0.90;97.30;;;;;;5021371;28;20183;-65
2022/12/18 12:40:30;;;;;;;25.33;16.30;;;1.00;97.30;;;;;;5021818;28;20186;-65
2022/12/18 12:43:13;;;;;;;29.55;16.08;;;0.70;97.00;;;;;;5025281;28;20259;-65
2022/12/18 12:45:59;;;;;;;27.83;16.52;;;0.90;97.60;;;;;;5026814;28;20224;-66
2022/12/18 12:48:37;;;;;;;25.50;16.00;;;1.00;98.10;;;;;;5023816;28;20256;-66
2022/12/18 12:51:15;;;;;;;28.85;17.48;;;1.00;98.00;;;;;;5024033;28;20237;-65
2022/12/18 12:53:41;;;;;;;24.70;14.48;;;0.50;97.40;;;;;;5018148;28;20190;-65
2022/12/18 12:56:10;;;;;;;23.45;16.90;;;0.80;97.80;;;;;;5016364;28;20214;-65